Time;durP1;ratioP1;P1;durP2;ratioP2;P2;SDS_P1;SDS_P2;PMS_P1;PMS_P2;Temp;Humidity;BMP_temperature;BMP_pressure;BME280_temperature;BME280_humidity;BME280_pressure;Samples;Min_cycle;Max_cycle;Signal;HPM_P1;HPM_P2
2024/01/24 00:05:08;;;;;;;7.00;2.67;;;;;;;14.10;94.16;101597.63;10575498;28;20096;-84
2024/01/24 00:10:30;;;;;;;8.73;2.53;;;;;;;14.15;91.02;101590.59;10561097;28;20051;-83
2024/01/24 00:15:53;;;;;;;4.80;2.70;;;;;;;14.12;89.61;101601.16;10560259;28;20544;-84
2024/01/24 00:21:17;;;;;;;10.30;2.88;;;;;;;14.23;83.88;101607.53;10575874;28;20073;-84
2024/01/24 00:26:39;;;;;;;7.60;2.70;;;;;;;14.26;79.66;101611.13;10574898;28;20054;-84
2024/01/24 00:32:03;;;;;;;11.25;4.95;;;;;;;14.12;79.32;101607.38;10561184;28;20480;-84
2024/01/24 00:37:27;;;;;;;5.60;2.78;;;;;;;14.18;75.67;101607.44;10560711;28;20047;-84
2024/01/24 00:42:50;;;;;;;6.28;3.08;;;;;;;14.20;73.40;101611.03;10566654;28;20039;-83
2024/01/24 00:48:13;;;;;;;6.00;2.95;;;;;;;14.27;73.16;101602.28;10562033;28;20051;-83
2024/01/24 00:53:38;;;;;;;8.00;2.55;;;;;;;14.24;74.72;101602.22;10554810;28;20048;-84
2024/01/24 00:59:01;;;;;;;8.38;2.30;;;;;;;14.24;75.04;101602.22;10574703;28;20054;-84
2024/01/24 01:04:23;;;;;;;3.53;2.03;;;;;;;14.25;73.50;101587.19;10574423;28;20049;-84
2024/01/24 01:09:47;;;;;;;6.65;1.90;;;;;;;14.28;68.87;101582.84;10569666;28;20100;-83
2024/01/24 01:15:13;;;;;;;7.00;2.22;;;;;;;14.25;69.29;101566.84;10569456;28;20550;-84
2024/01/24 01:20:37;;;;;;;4.90;2.22;;;;;;;14.14;72.09;101563.16;10568794;28;20040;-83
2024/01/24 01:26:04;;;;;;;6.38;2.20;;;;;;;14.17;73.60;101552.59;10578382;28;20360;-83
2024/01/24 01:31:27;;;;;;;6.30;2.80;;;;;;;14.15;73.94;101550.78;10581745;28;20689;-84
2024/01/24 01:37:05;;;;;;;6.20;2.80;;;;;;;14.11;77.02;101547.16;10582036;28;20403;-84
2024/01/24 01:42:35;;;;;;;4.55;2.97;;;;;;;14.03;82.04;101530.25;10581570;28;20130;-83
2024/01/24 01:47:59;;;;;;;5.28;3.10;;;;;;;13.86;86.01;101524.69;10578995;28;20055;-84
2024/01/24 01:53:23;;;;;;;7.28;3.40;;;;;;;13.81;89.26;101509.59;10594546;27;20051;-84
2024/01/24 01:58:48;;;;;;;10.13;3.45;;;;;;;13.87;90.25;101493.75;10580815;28;20365;-84
2024/01/24 02:04:11;;;;;;;6.68;3.83;;;;;;;13.93;88.85;101493.81;10565984;28;20050;-84
2024/01/24 02:09:34;;;;;;;9.48;3.70;;;;;;;14.05;90.22;101501.94;10565735;27;20573;-83
2024/01/24 02:14:58;;;;;;;7.65;3.22;;;;;;;14.12;91.21;101503.81;10569749;28;20500;-84
2024/01/24 02:20:22;;;;;;;6.38;3.28;;;;;;;14.23;90.53;101515.50;10580696;28;20052;-83
2024/01/24 02:25:50;;;;;;;9.52;4.25;;;;;;;14.27;94.63;101511.09;10564632;28;20104;-84
2024/01/24 02:31:12;;;;;;;9.90;3.42;;;;;;;14.28;97.01;101511.13;10565277;28;20053;-83
2024/01/24 02:36:35;;;;;;;10.23;3.60;;;;;;;14.35;96.92;101505.00;10579113;28;20054;-83
2024/01/24 02:41:59;;;;;;;6.63;2.85;;;;;;;14.36;94.42;101489.97;10564747;27;20043;-84
2024/01/24 02:47:22;;;;;;;6.60;3.42;;;;;;;14.42;90.55;101482.09;10578667;28;20095;-83
2024/01/24 02:52:44;;;;;;;5.43;2.92;;;;;;;14.49;88.34;101465.34;10578451;27;20089;-84
2024/01/24 02:58:08;;;;;;;6.57;3.42;;;;;;;14.56;82.75;101479.59;10564039;28;20460;-84
2024/01/24 03:03:30;;;;;;;9.68;3.13;;;;;;;14.65;73.59;101461.06;10564175;28;20039;-83
2024/01/24 03:08:56;;;;;;;6.30;3.17;;;;;;;14.51;73.38;101466.25;10564236;27;20077;-84
2024/01/24 03:14:24;;;;;;;8.30;3.67;;;;;;;14.43;74.85;101477.69;10577062;28;20491;-84
2024/01/24 03:19:47;;;;;;;7.30;5.13;;;;;;;14.47;73.59;101476.81;10577569;28;20050;-83
2024/01/24 03:25:15;;;;;;;6.88;3.42;;;;;;;14.43;70.80;101483.00;10577316;28;20490;-84
2024/01/24 03:30:40;;;;;;;4.45;3.75;;;;;;;14.46;67.85;101483.00;10595783;27;20445;-83
2024/01/24 03:36:03;;;;;;;7.72;3.50;;;;;;;14.57;68.60;101489.34;10573734;28;20543;-83
2024/01/24 03:41:25;;;;;;;10.07;3.40;;;;;;;14.54;74.33;101478.69;10562492;28;20116;-84
2024/01/24 03:46:49;;;;;;;11.63;4.40;;;;;;;14.56;80.81;101498.19;10574403;28;20051;-83
2024/01/24 03:52:13;;;;;;;11.25;4.35;;;;;;;14.62;89.24;101501.81;10574677;28;20483;-83
2024/01/24 03:57:36;;;;;;;11.75;4.78;;;;;;;14.66;98.72;101511.59;10575936;27;20035;-84
2024/01/24 04:03:08;;;;;;;11.07;4.43;;;;;;;14.60;100.00;101500.00;10561241;28;20051;-83
2024/01/24 04:08:33;;;;;;;11.80;4.82;;;;;;;14.50;100.00;101501.69;10561475;28;20079;-83
2024/01/24 04:13:56;;;;;;;12.65;4.78;;;;;;;14.53;100.00;101512.31;10562160;28;20134;-83
2024/01/24 04:19:21;;;;;;;12.65;4.03;;;;;;;14.53;100.00;101514.09;10575721;28;20050;-82
2024/01/24 04:24:44;;;;;;;11.15;3.70;;;;;;;14.65;97.01;101509.81;10575876;28;20051;-83
2024/01/24 04:30:08;;;;;;;9.20;3.58;;;;;;;14.64;94.98;101520.41;10559765;28;20067;-83
2024/01/24 04:35:32;;;;;;;11.80;3.58;;;;;;;14.63;93.21;101537.25;10561524;28;20487;-85
2024/01/24 04:40:55;;;;;;;8.25;4.00;;;;;;;14.59;93.81;101546.94;10576184;28;20475;-83
2024/01/24 04:46:17;;;;;;;11.60;4.32;;;;;;;14.61;94.55;101549.63;10575023;28;20090;-83
2024/01/24 04:51:42;;;;;;;10.85;3.83;;;;;;;14.58;93.91;101560.19;10574499;28;20119;-83
2024/01/24 04:57:05;;;;;;;15.25;4.60;;;;;;;14.57;90.10;101563.75;10574834;28;20410;-83
2024/01/24 05:02:27;;;;;;;8.23;3.80;;;;;;;14.58;88.56;101570.81;10569126;28;20134;-83
2024/01/24 05:07:52;;;;;;;11.80;4.03;;;;;;;14.59;87.32;101577.94;10571231;28;20483;-83
2024/01/24 05:13:14;;;;;;;9.75;3.90;;;;;;;14.44;88.27;101569.78;10585225;28;20036;-82
2024/01/24 05:18:36;;;;;;;13.93;4.05;;;;;;;14.50;85.26;101581.38;10560013;28;20548;-83
2024/01/24 05:24:00;;;;;;;22.83;11.07;;;;;;;14.53;84.10;101592.03;10560952;28;20051;-82
2024/01/24 05:29:23;;;;;;;14.32;8.95;;;;;;;14.42;86.02;101583.06;10542979;28;20052;-82
2024/01/24 05:34:46;;;;;;;9.70;5.82;;;;;;;14.50;84.50;101588.47;10557791;28;20035;-82
2024/01/24 05:40:12;;;;;;;16.38;7.45;;;;;;;14.61;85.37;101590.38;10559527;28;20047;-83
2024/01/24 05:45:34;;;;;;;13.88;5.00;;;;;;;14.71;86.19;101586.03;10574640;28;20040;-83
2024/01/24 05:50:57;;;;;;;11.43;5.10;;;;;;;14.72;89.23;101595.81;10567057;28;20553;-84
2024/01/24 05:56:21;;;;;;;8.80;5.35;;;;;;;14.75;91.01;101588.78;10588422;27;20047;-83
2024/01/24 06:01:44;;;;;;;10.20;4.65;;;;;;;14.78;90.97;101590.56;10579948;27;20047;-82
2024/01/24 06:07:06;;;;;;;17.15;5.45;;;;;;;14.88;91.89;101592.47;10579022;28;20047;-82
2024/01/24 06:12:33;;;;;;;11.13;4.18;;;;;;;14.92;91.50;101599.59;10569609;28;20051;-83
2024/01/24 06:17:58;;;;;;;17.17;10.43;;;;;;;15.02;90.13;101600.59;10565597;28;20395;-83
2024/01/24 06:23:20;;;;;;;10.38;5.28;;;;;;;15.14;88.87;101614.03;10577925;27;20051;-82
2024/01/24 06:28:48;;;;;;;12.25;6.13;;;;;;;15.29;87.65;101608.88;10579308;28;20461;-83
2024/01/24 06:34:12;;;;;;;11.83;7.17;;;;;;;15.46;86.52;101604.59;10579116;27;20043;-83
2024/01/24 06:39:34;;;;;;;14.13;6.32;;;;;;;15.46;87.36;101606.38;10579060;28;20051;-84
2024/01/24 06:44:59;;;;;;;17.48;9.20;;;;;;;15.55;88.10;101614.47;10579201;28;20097;-84
2024/01/24 06:50:24;;;;;;;13.15;7.03;;;;;;;15.75;85.81;101611.97;10577517;28;20051;-83
2024/01/24 06:55:47;;;;;;;9.48;5.82;;;;;;;15.78;85.19;101620.88;10565383;27;20068;-84
2024/01/24 07:01:11;;;;;;;12.38;6.38;;;;;;;15.86;87.11;101624.50;10563522;27;20051;-83
2024/01/24 07:06:34;;;;;;;15.93;8.13;;;;;;;16.20;84.03;101627.41;10593135;27;20736;-83
2024/01/24 07:11:56;;;;;;;12.82;7.57;;;;;;;16.44;79.51;101627.53;10592217;27;20047;-82
2024/01/24 07:17:21;;;;;;;20.38;8.02;;;;;;;16.52;81.97;101639.13;10555139;28;20050;-84
2024/01/24 07:22:43;;;;;;;12.43;8.65;;;;;;;16.57;83.61;101640.03;10564205;28;20073;-84
2024/01/24 07:28:07;;;;;;;13.32;7.00;;;;;;;16.74;79.91;101637.47;10563400;28;20773;-85
2024/01/24 07:33:31;;;;;;;18.83;11.60;;;;;;;16.73;77.77;101644.63;10570926;27;20070;-84
2024/01/24 07:38:53;;;;;;;11.52;5.97;;;;;;;16.69;74.79;101645.47;10559881;28;20133;-83
2024/01/24 07:44:15;;;;;;;13.00;5.85;;;;;;;16.66;74.47;101660.59;10575561;28;20062;-84
2024/01/24 07:49:41;;;;;;;17.52;9.05;;;;;;;16.81;74.49;101665.97;10597993;27;20372;-83
2024/01/24 07:55:03;;;;;;;16.50;5.93;;;;;;;16.78;71.79;101673.97;10574312;27;20140;-82
2024/01/24 08:00:26;;;;;;;16.40;7.45;;;;;;;16.84;71.35;101660.66;10562711;28;20039;-84
2024/01/24 08:05:50;;;;;;;15.95;5.53;;;;;;;16.94;71.01;101681.13;10562246;28;20051;-83
2024/01/24 08:11:13;;;;;;;13.15;6.75;;;;;;;17.06;71.11;101672.31;10537656;28;20047;-83
2024/01/24 08:16:35;;;;;;;10.90;5.50;;;;;;;17.41;68.40;101673.28;10576554;28;20100;-84
2024/01/24 08:22:00;;;;;;;10.15;4.55;;;;;;;17.97;64.04;101672.50;10561409;28;20736;-86
2024/01/24 08:27:22;;;;;;;10.05;4.82;;;;;;;18.19;60.53;101684.94;10561582;28;20059;-85
2024/01/24 08:32:46;;;;;;;12.48;4.40;;;;;;;18.08;58.84;101675.16;10551278;28;20051;-84
2024/01/24 08:38:14;;;;;;;13.50;6.53;;;;;;;17.49;63.54;101687.56;10575746;27;20051;-84
2024/01/24 08:43:40;;;;;;;16.15;6.43;;;;;;;17.20;66.76;101691.91;10613364;28;20075;-84
2024/01/24 08:49:05;;;;;;;11.10;7.10;;;;;;;16.88;68.50;101701.56;10560022;28;20511;-84
2024/01/24 08:54:33;;;;;;;11.90;7.13;;;;;;;16.61;71.61;101699.63;10561407;28;20051;-84
2024/01/24 08:59:56;;;;;;;17.90;8.23;;;;;;;16.43;75.81;101697.72;10575891;28;20111;-84
2024/01/24 09:05:20;;;;;;;18.83;9.45;;;;;;;16.43;77.95;101694.16;10561750;28;20530;-84
2024/01/24 09:10:44;;;;;;;66.65;25.33;;;;;;;16.68;77.04;101698.78;10560587;28;20094;-83
2024/01/24 09:16:07;;;;;;;11.68;6.50;;;;;;;17.04;73.11;101687.41;10543049;28;20059;-85
2024/01/24 09:21:30;;;;;;;13.95;7.13;;;;;;;17.69;68.75;101684.06;10575412;28;20562;-85
2024/01/24 09:26:55;;;;;;;13.73;9.75;;;;;;;18.26;65.30;101681.38;10582097;28;20047;-85
2024/01/24 09:32:17;;;;;;;13.00;5.32;;;;;;;18.48;63.39;101674.22;10567224;28;20044;-85
2024/01/24 09:37:40;;;;;;;14.18;7.95;;;;;;;18.54;60.25;101668.84;10580865;28;20046;-84
2024/01/24 09:43:05;;;;;;;14.60;8.98;;;;;;;18.60;61.92;101659.97;10560972;28;20096;-87
2024/01/24 09:48:28;;;;;;;11.13;5.30;;;;;;;19.44;55.90;101655.09;10570229;27;20039;-85
2024/01/24 09:53:52;;;;;;;10.35;6.50;;;;;;;19.33;53.40;101660.53;10556303;28;20058;-87
2024/01/24 09:59:16;;;;;;;19.73;9.20;;;;;;;19.01;56.00;101663.38;10573780;28;20058;-83
2024/01/24 10:04:40;;;;;;;8.90;6.05;;;;;;;18.93;56.47;101665.19;10575566;28;20566;-88
2024/01/24 10:10:08;;;;;;;14.82;7.18;;;;;;;19.04;56.24;101659.78;10565080;28;20059;-87
2024/01/24 10:15:32;;;;;;;;;;;;;;;19.30;54.78;101659.63;10576780;28;20070;-85
2024/01/24 10:20:56;;;;;;;10.48;4.78;;;;;;;19.20;54.45;101665.94;10598309;27;20271;-86
2024/01/24 10:26:18;;;;;;;16.38;8.02;;;;;;;19.30;53.27;101648.94;10543619;28;20067;-86
2024/01/24 10:31:47;;;;;;;10.40;6.63;;;;;;;19.22;54.02;101649.00;10567863;28;20048;-83
2024/01/24 10:37:13;;;;;;;13.82;7.07;;;;;;;19.01;54.87;101658.03;10562792;28;20058;-85
2024/01/24 10:42:49;;;;;;;8.03;4.83;;;;;;;18.65;56.94;101644.78;10567824;28;20051;-86
2024/01/24 10:48:16;;;;;;;12.18;6.63;;;;;;;18.47;59.18;101647.47;10533765;28;20048;-88
2024/01/24 10:53:41;;;;;;;15.00;6.55;;;;;;;18.34;60.74;101651.97;10575196;28;20130;-88
2024/01/24 10:59:04;;;;;;;15.48;6.53;;;;;;;18.18;62.56;101648.41;10558817;27;21050;-85
2024/01/24 11:04:30;;;;;;;12.35;5.82;;;;;;;18.42;60.83;101646.59;10575422;28;20062;-89
2024/01/24 11:15:45;;;;;;;15.82;5.22;;;;;;;18.97;56.12;101650.03;10595783;27;20710;-89
2024/01/24 11:21:11;;;;;;;16.45;5.88;;;;;;;19.04;55.58;101643.72;10551201;28;20043;-88
2024/01/24 11:26:53;;;;;;;12.82;5.53;;;;;;;19.24;55.33;101646.28;10578472;28;20115;-89
2024/01/24 11:32:55;;;;;;;13.32;6.18;;;;;;;19.19;54.36;101642.75;10562185;27;20047;-89
2024/01/24 11:38:39;;;;;;;16.40;5.72;;;;;;;18.67;55.96;101648.34;10586306;27;20104;-90
2024/01/24 11:44:12;;;;;;;13.52;6.50;;;;;;;18.29;58.16;101651.09;10574688;28;20528;-87
2024/01/24 11:49:36;;;;;;;10.60;6.35;;;;;;;18.02;59.01;101652.00;10545493;28;20051;-79
2024/01/24 11:55:00;;;;;;;10.70;5.05;;;;;;;18.06;59.14;101643.09;10542390;28;20043;-83
2024/01/24 12:00:26;;;;;;;11.00;4.57;;;;;;;18.38;56.52;101648.38;10548339;28;20047;-83
2024/01/24 12:05:48;;;;;;;11.35;6.05;;;;;;;18.67;55.21;101651.91;10546396;27;20408;-82
2024/01/24 12:11:12;;;;;;;10.10;5.18;;;;;;;18.52;55.07;101651.91;10536644;28;20061;-82
2024/01/24 12:16:35;;;;;;;11.98;6.88;;;;;;;18.19;57.09;101647.53;10574040;28;20047;-84
2024/01/24 12:21:58;;;;;;;23.42;12.15;;;;;;;17.45;62.61;101648.41;10573239;28;20243;-84
2024/01/24 12:27:22;;;;;;;11.07;7.35;;;;;;;17.50;63.16;101637.72;10574986;28;20055;-83
2024/01/24 12:32:45;;;;;;;11.60;5.95;;;;;;;17.85;60.05;101646.66;10554077;28;20070;-85
2024/01/24 12:38:11;;;;;;;9.73;5.60;;;;;;;18.04;57.34;101647.56;10571374;28;20716;-82
2024/01/24 12:43:37;;;;;;;17.05;8.75;;;;;;;18.00;56.36;101653.78;10554150;28;20051;-80
2024/01/24 12:48:59;;;;;;;14.88;8.82;;;;;;;17.97;56.13;101644.91;10545771;28;20044;-84
2024/01/24 12:54:24;;;;;;;14.82;6.40;;;;;;;17.87;57.00;101654.69;10571146;28;20057;-83
2024/01/24 12:59:48;;;;;;;16.65;8.98;;;;;;;17.57;61.22;101655.53;10581621;27;20132;-80
2024/01/24 13:05:11;;;;;;;10.43;6.22;;;;;;;17.44;62.91;101653.72;10566152;27;20040;-78
2024/01/24 13:10:34;;;;;;;9.82;4.90;;;;;;;17.39;63.39;101651.03;10589508;27;20054;-82
2024/01/24 13:15:58;;;;;;;13.93;6.70;;;;;;;17.41;64.32;101661.72;10581337;28;20053;-81
2024/01/24 13:21:21;;;;;;;10.85;4.50;;;;;;;17.65;62.78;101659.16;10553544;27;20035;-82
2024/01/24 13:26:45;;;;;;;19.67;9.05;;;;;;;17.53;63.88;101662.63;10576719;27;20392;-81
2024/01/24 13:32:12;;;;;;;10.02;6.72;;;;;;;17.42;65.23;101659.06;10580134;27;20132;-84
2024/01/24 13:37:36;;;;;;;10.48;6.60;;;;;;;17.51;64.96;101651.06;10567102;28;20104;-81
2024/01/24 13:42:58;;;;;;;56.03;27.95;;;;;;;17.68;65.07;101656.47;10574386;28;20097;-81
2024/01/24 13:48:26;;;;;;;19.02;9.50;;;;;;;17.49;66.71;101646.63;10563697;28;20517;-81
2024/01/24 13:53:59;;;;;;;12.27;5.45;;;;;;;17.27;67.59;101640.34;10590049;27;20719;-81
2024/01/24 13:59:22;;;;;;;10.95;5.22;;;;;;;17.03;70.90;101637.59;10552896;27;20457;-80
2024/01/24 14:04:45;;;;;;;14.95;5.53;;;;;;;17.07;72.39;101647.38;10553568;27;20384;-81
2024/01/24 14:10:11;;;;;;;20.77;6.80;;;;;;;16.83;75.88;101642.88;10563183;28;20753;-82
2024/01/24 14:15:33;;;;;;;10.10;4.82;;;;;;;16.70;80.62;101633.94;10585965;27;20403;-83
2024/01/24 14:20:57;;;;;;;48.03;26.42;;;;;;;16.35;85.13;101640.78;10557439;27;20577;-83
2024/01/24 14:26:20;;;;;;;9.80;5.00;;;;;;;16.28;87.55;101647.88;10578653;27;20047;-85
2024/01/24 14:31:42;;;;;;;15.30;6.90;;;;;;;16.36;87.62;101645.25;10579335;28;20127;-83
2024/01/24 14:37:06;;;;;;;14.23;6.47;;;;;;;16.44;84.99;101642.63;10578578;27;20050;-82
2024/01/24 14:42:29;;;;;;;17.13;5.63;;;;;;;16.23;85.19;101654.06;10579477;28;20101;-85
2024/01/24 14:47:51;;;;;;;10.23;4.85;;;;;;;16.08;84.32;101667.28;10588027;27;20052;-83
2024/01/24 14:53:16;;;;;;;11.10;4.55;;;;;;;15.97;82.99;101666.28;10562382;28;20051;-84
2024/01/24 14:58:39;;;;;;;11.70;5.45;;;;;;;15.81;81.31;101663.50;10547818;28;20139;-83
2024/01/24 15:04:01;;;;;;;7.57;4.53;;;;;;;15.82;78.31;101662.59;10545270;28;20496;-81
2024/01/24 15:09:25;;;;;;;16.45;6.13;;;;;;;15.73;78.39;101673.19;10549542;28;20053;-82
2024/01/24 15:14:47;;;;;;;14.27;6.82;;;;;;;15.64;78.82;101677.53;10563291;28;20060;-82
2024/01/24 15:20:10;;;;;;;19.38;8.80;;;;;;;15.54;79.78;101679.22;10570666;28;20051;-81
2024/01/24 15:25:34;;;;;;;13.75;6.93;;;;;;;15.41;79.40;101690.59;10574341;27;20528;-82
2024/01/24 15:30:57;;;;;;;10.98;7.13;;;;;;;15.18;79.12;101690.31;10550999;27;20051;-82
2024/01/24 15:36:19;;;;;;;14.80;7.35;;;;;;;15.09;79.51;101692.88;10535770;28;20483;-82
2024/01/24 15:41:43;;;;;;;12.52;6.68;;;;;;;14.97;79.05;101704.25;10563672;27;20053;-83
2024/01/24 15:47:07;;;;;;;10.85;4.95;;;;;;;14.87;77.71;101702.34;10568586;27;20051;-84
2024/01/24 15:52:30;;;;;;;11.02;5.85;;;;;;;14.75;78.61;101704.84;10546753;28;20166;-82
2024/01/24 15:57:53;;;;;;;15.38;4.93;;;;;;;14.50;85.33;101716.00;10539790;27;20067;-82
2024/01/24 16:03:19;;;;;;;22.73;9.55;;;;;;;14.52;89.54;101719.56;10556280;27;20043;-81
2024/01/24 16:08:41;;;;;;;11.05;4.50;;;;;;;14.45;93.36;101725.66;10547030;28;20130;-82
2024/01/24 16:14:05;;;;;;;14.00;4.78;;;;;;;14.51;93.37;101726.63;10550996;27;20058;-80
2024/01/24 16:19:29;;;;;;;17.42;8.80;;;;;;;14.56;91.78;101719.66;10560032;28;20361;-81
2024/01/24 16:24:51;;;;;;;12.30;7.80;;;;;;;14.53;91.49;101730.22;10578320;27;20046;-82
2024/01/24 16:30:15;;;;;;;13.02;6.90;;;;;;;14.61;89.71;101740.97;10556108;28;20157;-80
2024/01/24 16:35:38;;;;;;;13.98;7.43;;;;;;;14.63;89.62;101731.25;10557096;28;20035;-83
2024/01/24 16:41:00;;;;;;;15.60;8.50;;;;;;;14.70;89.72;101735.78;10578489;27;20047;-82
2024/01/24 16:46:25;;;;;;;12.13;5.90;;;;;;;14.66;90.62;101744.56;10555203;28;20083;-82
2024/01/24 16:51:48;;;;;;;15.75;7.00;;;;;;;14.59;93.43;101750.66;10558951;28;20081;-82
2024/01/24 16:57:11;;;;;;;12.93;6.05;;;;;;;14.57;94.88;101749.78;10556974;28;20059;-80
2024/01/24 17:02:38;;;;;;;12.55;5.90;;;;;;;14.51;94.93;101744.34;10553852;28;20055;-82
2024/01/24 17:08:04;;;;;;;17.00;9.95;;;;;;;14.28;96.57;101758.13;10555791;28;20052;-84
2024/01/24 17:13:27;;;;;;;16.83;10.07;;;;;;;14.14;99.35;101759.66;10572574;28;20039;-82
2024/01/24 17:18:51;;;;;;;13.15;6.78;;;;;;;14.23;98.70;101758.94;10549378;28;20105;-83
2024/01/24 17:24:14;;;;;;;19.98;12.85;;;;;;;14.46;97.37;101772.59;10547308;28;20051;-84
2024/01/24 17:29:37;;;;;;;18.08;10.55;;;;;;;14.44;96.65;101764.59;10552304;28;20035;-83
2024/01/24 17:35:01;;;;;;;62.25;24.63;;;;;;;14.48;95.54;101766.47;10560823;28;20097;-82
2024/01/24 17:40:25;;;;;;;14.73;7.53;;;;;;;14.62;92.94;101769.34;10555113;28;20047;-82
2024/01/24 17:45:47;;;;;;;13.75;7.22;;;;;;;14.67;92.99;101776.50;10572424;27;20048;-81
2024/01/24 17:51:11;;;;;;;13.95;7.45;;;;;;;14.68;94.20;101775.63;10571337;27;20510;-82
2024/01/24 17:56:34;;;;;;;16.48;6.18;;;;;;;14.69;93.97;101777.44;10530960;28;20051;-84
2024/01/24 18:01:57;;;;;;;17.65;8.02;;;;;;;14.71;93.07;101780.97;10561488;27;20387;-81
2024/01/24 18:07:25;;;;;;;12.48;7.20;;;;;;;14.67;91.74;101784.47;10572783;27;20071;-82
2024/01/24 18:12:56;;;;;;;16.30;8.00;;;;;;;14.80;88.27;101780.22;10558396;28;20044;-80
2024/01/24 18:18:24;;;;;;;26.50;13.25;;;;;;;14.90;79.65;101790.09;10547361;27;20028;-82
2024/01/24 18:23:54;;;;;;;16.15;8.43;;;;;;;14.67;79.27;101792.44;10563271;28;20096;-83
2024/01/24 18:29:16;;;;;;;44.72;29.85;;;;;;;14.69;76.75;101792.47;10565149;28;20715;-80
2024/01/24 18:34:43;;;;;;;31.88;17.40;;;;;;;14.77;72.64;101792.59;10579285;28;20055;-80
2024/01/24 18:40:17;;;;;;;22.30;14.70;;;;;;;14.76;70.55;101794.34;10579704;28;20043;-81
2024/01/24 18:45:42;;;;;;;29.30;17.10;;;;;;;14.73;69.70;101795.19;10564611;28;20495;-81
2024/01/24 18:51:06;;;;;;;10.18;6.15;;;;;;;14.65;69.80;101801.25;10565486;28;20180;-80
2024/01/24 18:56:30;;;;;;;15.85;6.07;;;;;;;14.58;71.79;101799.38;10565340;28;20449;-80
2024/01/24 19:01:53;;;;;;;14.55;5.38;;;;;;;14.48;71.03;101803.66;10578369;27;20104;-81
2024/01/24 19:07:18;;;;;;;19.35;9.48;;;;;;;14.39;69.57;101814.13;10579669;28;20096;-82
2024/01/24 19:12:43;;;;;;;18.63;11.00;;;;;;;14.45;69.91;101810.66;10578513;28;20035;-83
2024/01/24 19:18:07;;;;;;;17.10;8.55;;;;;;;14.41;73.24;101800.88;10579960;28;20679;-84
2024/01/24 19:23:32;;;;;;;16.38;9.13;;;;;;;14.53;73.16;101795.75;10579112;28;20047;-81
2024/01/24 19:28:57;;;;;;;16.25;6.57;;;;;;;14.53;74.80;101804.63;10565216;28;20089;-81
2024/01/24 19:34:21;;;;;;;14.45;5.65;;;;;;;14.51;77.50;101816.97;10581911;27;20058;-82
2024/01/24 19:39:44;;;;;;;14.20;6.65;;;;;;;14.57;79.71;101822.38;10577650;28;20055;-82
2024/01/24 19:45:11;;;;;;;17.02;7.63;;;;;;;14.58;81.36;101823.28;10548314;28;20050;-82
2024/01/24 19:50:35;;;;;;;15.27;5.93;;;;;;;14.56;80.46;101809.09;10565405;28;20046;-82
2024/01/24 19:56:00;;;;;;;22.55;8.25;;;;;;;14.65;79.52;101803.91;10579065;28;20066;-81
2024/01/24 20:01:28;;;;;;;22.67;11.63;;;;;;;14.66;79.39;101829.63;10544137;27;20388;-81
2024/01/24 20:07:01;;;;;;;21.10;10.02;;;;;;;14.64;78.64;101820.72;10565038;28;20043;-82
2024/01/24 20:12:28;;;;;;;17.20;8.25;;;;;;;14.64;75.27;101823.38;10576736;28;20258;-82
2024/01/24 20:17:58;;;;;;;18.08;7.80;;;;;;;14.61;74.20;101831.31;10573317;28;20059;-81
2024/01/24 20:23:30;;;;;;;14.30;6.10;;;;;;;14.58;76.17;101837.47;10541133;28;20079;-80
2024/01/24 20:28:55;;;;;;;15.38;8.77;;;;;;;14.61;75.45;101829.56;10561199;28;20059;-81
2024/01/24 20:34:28;;;;;;;21.77;10.05;;;;;;;14.62;76.14;101854.38;10573033;28;20395;-81
2024/01/24 20:39:55;;;;;;;15.00;6.47;;;;;;;14.62;77.97;101855.28;10557198;28;20040;-81
2024/01/24 20:45:18;;;;;;;16.98;8.80;;;;;;;14.65;79.86;101852.66;10569258;28;20559;-82
2024/01/24 20:50:47;;;;;;;11.80;6.88;;;;;;;14.79;79.47;101857.28;10559074;28;20567;-81
2024/01/24 20:56:10;;;;;;;17.00;8.60;;;;;;;14.73;78.81;101869.63;10560974;28;20092;-80
2024/01/24 21:01:32;;;;;;;16.67;7.32;;;;;;;14.72;81.75;101864.28;10570533;28;20070;-80
2024/01/24 21:06:57;;;;;;;16.52;7.45;;;;;;;14.56;85.76;101867.56;10566909;28;20051;-80
2024/01/24 21:12:19;;;;;;;12.95;6.70;;;;;;;14.57;84.21;101859.59;10555533;28;20051;-82
2024/01/24 21:17:42;;;;;;;15.30;6.50;;;;;;;14.58;82.02;101866.69;10561507;28;20052;-80
2024/01/24 21:23:06;;;;;;;19.38;8.90;;;;;;;14.60;79.82;101869.38;10566743;28;20051;-81
2024/01/24 21:28:29;;;;;;;18.35;8.43;;;;;;;14.57;78.83;101858.72;10566609;28;20050;-81
2024/01/24 21:33:51;;;;;;;14.32;6.95;;;;;;;14.61;77.44;101860.56;10580064;28;20055;-81
2024/01/24 21:39:15;;;;;;;13.77;6.25;;;;;;;14.57;79.38;101867.56;10590980;27;20047;-81
2024/01/24 21:44:38;;;;;;;13.90;6.00;;;;;;;14.66;78.49;101862.41;10576593;28;20395;-81
2024/01/24 21:50:02;;;;;;;15.43;6.93;;;;;;;14.65;78.57;101857.06;10578390;28;20040;-80
2024/01/24 21:55:26;;;;;;;19.45;8.60;;;;;;;14.59;80.97;101841.91;10565322;28;20097;-81
2024/01/24 22:00:50;;;;;;;9.65;5.55;;;;;;;14.65;82.67;101839.34;10579366;28;20054;-80
2024/01/24 22:06:16;;;;;;;15.43;4.93;;;;;;;14.66;81.45;101833.19;10564626;28;20043;-81
2024/01/24 22:11:41;;;;;;;14.70;5.10;;;;;;;14.52;81.38;101826.75;10579773;28;20044;-81
2024/01/24 22:17:04;;;;;;;11.38;4.82;;;;;;;14.16;81.57;101834.06;10580061;28;20043;-81
2024/01/24 22:22:30;;;;;;;15.52;6.70;;;;;;;13.72;86.19;101827.91;10578115;27;20044;-82
2024/01/24 22:27:55;;;;;;;11.00;5.10;;;;;;;13.84;86.37;101823.72;10564515;28;20404;-80
2024/01/24 22:33:19;;;;;;;15.52;6.10;;;;;;;14.02;84.56;101807.25;10579675;28;20082;-81
2024/01/24 22:38:42;;;;;;;8.68;4.90;;;;;;;14.07;84.45;101816.19;10512685;28;20048;-81
2024/01/24 22:44:06;;;;;;;12.05;4.93;;;;;;;14.10;86.03;101812.69;10536728;28;20055;-80
2024/01/24 22:49:28;;;;;;;13.02;6.03;;;;;;;14.02;87.10;101812.56;10573643;28;20047;-80
2024/01/24 22:54:51;;;;;;;9.23;4.20;;;;;;;14.00;87.92;101806.31;10577974;28;20040;-80
2024/01/24 23:00:18;;;;;;;14.23;5.57;;;;;;;14.18;88.67;101803.97;10571446;28;20113;-81
2024/01/24 23:05:41;;;;;;;10.77;4.85;;;;;;;14.19;90.70;101796.91;10577576;28;20074;-79
2024/01/24 23:11:03;;;;;;;13.93;4.80;;;;;;;14.27;92.77;101816.53;10549721;28;20047;-82
2024/01/24 23:16:27;;;;;;;10.98;5.43;;;;;;;14.29;93.88;101791.78;10578203;28;20096;-81
2024/01/24 23:21:50;;;;;;;12.82;5.90;;;;;;;14.17;94.23;101788.94;10550251;28;20047;-81
2024/01/24 23:27:14;;;;;;;14.02;4.85;;;;;;;14.16;94.05;101781.84;10524637;27;20051;-81
2024/01/24 23:32:38;;;;;;;9.30;4.50;;;;;;;14.30;93.92;101780.31;10576658;28;20135;-80
2024/01/24 23:38:00;;;;;;;14.30;4.72;;;;;;;14.36;90.46;101784.81;10563678;28;20241;-80
2024/01/24 23:43:23;;;;;;;10.95;5.28;;;;;;;14.31;89.80;101781.19;10575527;28;20051;-80
2024/01/24 23:48:47;;;;;;;10.80;4.88;;;;;;;14.38;87.89;101780.44;10567727;28;20051;-80
2024/01/24 23:54:12;;;;;;;15.00;5.65;;;;;;;14.43;86.78;101777.88;10576780;28;20063;-81
2024/01/24 23:59:35;;;;;;;11.65;5.20;;;;;;;14.39;85.76;101768.06;10562799;28;20075;-80
